Time;durP1;ratioP1;P1;durP2;ratioP2;P2;SDS_P1;SDS_P2;PMS_P1;PMS_P2;Temp;Humidity;BMP_temperature;BMP_pressure;BME280_temperature;BME280_humidity;BME280_pressure;Samples;Min_cycle;Max_cycle;Signal;HPM_P1;HPM_P2
2022/06/10 00:00:57;;;;;;;1.17;1.08;;;;;;;21.27;52.26;100755.44;4986435;28;20484;-78
2022/06/10 00:03:25;;;;;;;1.83;0.50;;;;;;;21.50;51.94;100792.91;4986116;28;20058;-79
2022/06/10 00:06:03;;;;;;;1.02;0.60;;;;;;;21.50;52.18;100787.50;4991099;28;20054;-77
2022/06/10 00:08:33;;;;;;;3.38;0.95;;;;;;;21.51;51.92;100809.97;4989221;28;20054;-78
2022/06/10 00:11:03;;;;;;;4.15;0.93;;;;;;;21.43;52.51;100808.25;4951732;28;20047;-78
2022/06/10 00:13:33;;;;;;;0.60;0.40;;;;;;;21.52;52.36;100817.84;4967348;28;20113;-78
2022/06/10 00:16:01;;;;;;;1.63;0.75;;;;;;;21.39;52.97;100801.63;4968544;28;20046;-78
2022/06/10 00:18:30;;;;;;;0.50;0.32;;;;;;;20.85;52.70;100716.03;4967289;28;20051;-78
2022/06/10 00:20:58;;;;;;;1.02;0.68;;;;;;;21.44;52.75;100818.03;4967167;28;20054;-78
2022/06/10 00:23:25;;;;;;;0.75;0.70;;;;;;;21.44;53.02;100831.53;4968316;28;20058;-77
2022/06/10 00:25:51;;;;;;;2.08;0.73;;;;;;;21.36;53.34;100812.78;4967280;28;20485;-79
2022/06/10 00:28:19;;;;;;;2.65;0.60;;;;;;;21.02;53.60;100774.03;4966765;28;20066;-79
2022/06/10 00:30:46;;;;;;;2.42;0.52;;;;;;;21.32;53.29;100814.22;4966917;28;20460;-77
2022/06/10 00:33:13;;;;;;;2.85;0.50;;;;;;;21.35;53.44;100817.34;4966933;28;20563;-76
2022/06/10 00:35:41;;;;;;;4.30;0.80;;;;;;;21.33;53.04;100814.00;4951199;28;20740;-78
2022/06/10 00:38:08;;;;;;;1.45;0.60;;;;;;;21.38;53.43;100829.59;4966765;28;20456;-78
2022/06/10 00:40:46;;;;;;;1.00;0.55;;;;;;;21.24;53.60;100825.19;4966233;28;20441;-78
2022/06/10 00:43:34;;;;;;;7.30;0.73;;;;;;;21.33;53.84;100829.38;4968526;28;20105;-79
2022/06/10 00:46:21;;;;;;;2.65;0.77;;;;;;;21.29;53.99;100830.84;4982190;28;20145;-78
2022/06/10 00:49:07;;;;;;;6.38;0.65;;;;;;;21.16;53.84;100809.16;4968089;28;20049;-79
2022/06/10 00:51:43;;;;;;;2.17;0.60;;;;;;;21.32;53.95;100827.72;4967879;28;20047;-77
2022/06/10 00:54:23;;;;;;;7.22;0.88;;;;;;;21.31;53.96;100826.03;4985053;28;20447;-78
2022/06/10 00:57:03;;;;;;;1.48;0.60;;;;;;;21.18;53.22;100799.00;4986442;28;20058;-78
2022/06/10 00:59:38;;;;;;;0.88;0.60;;;;;;;20.79;52.61;100741.94;4986312;28;20050;-78
2022/06/10 01:02:11;;;;;;;0.98;0.70;;;;;;;21.38;52.87;100824.19;4987193;28;20065;-78
2022/06/10 01:04:42;;;;;;;0.80;0.80;;;;;;;21.02;52.62;100774.03;4986285;28;20054;-79
2022/06/10 01:07:13;;;;;;;3.13;0.82;;;;;;;21.35;51.92;100811.13;4986220;28;20058;-79
2022/06/10 01:09:41;;;;;;;2.83;0.68;;;;;;;21.40;52.15;100822.16;4995382;28;20215;-79
2022/06/10 01:12:18;;;;;;;3.40;0.80;;;;;;;21.48;51.62;100843.63;5005678;28;20057;-77
2022/06/10 01:15:06;;;;;;;3.40;0.65;;;;;;;21.38;51.70;100832.31;5007257;28;20054;-77
2022/06/10 01:17:56;;;;;;;3.33;0.80;;;;;;;21.31;52.13;100823.34;5006329;28;20099;-77
2022/06/10 01:20:43;;;;;;;1.95;0.50;;;;;;;21.46;51.39;100839.44;5022718;28;20104;-80
2022/06/10 01:23:28;;;;;;;5.05;0.85;;;;;;;21.40;51.25;100837.53;5005618;28;20054;-79
2022/06/10 01:26:00;;;;;;;2.25;0.50;;;;;;;21.38;51.94;100840.41;5006083;28;20053;-80
2022/06/10 01:28:27;;;;;;;1.05;0.65;;;;;;;21.33;51.55;100823.97;5005253;28;20054;-79
2022/06/10 01:31:17;;;;;;;5.00;1.00;;;;;;;20.96;51.91;100763.19;5005480;28;20440;-76
2022/06/10 01:33:47;;;;;;;0.93;0.60;;;;;;;20.94;51.69;100760.69;4991223;28;20132;-79
2022/06/10 01:36:36;;;;;;;1.45;0.85;;;;;;;21.28;52.09;100826.47;5005094;28;20045;-78
2022/06/10 01:39:31;;;;;;;3.45;0.60;;;;;;;21.34;52.11;100836.47;5006434;28;20045;-78
2022/06/10 01:42:12;;;;;;;0.73;0.45;;;;;;;21.38;51.92;100840.41;5005254;28;20046;-78
2022/06/10 01:44:46;;;;;;;1.35;0.63;;;;;;;21.34;51.21;100831.06;5004870;28;20496;-78
2022/06/10 01:47:24;;;;;;;2.92;0.85;;;;;;;21.38;51.79;100843.09;5005135;28;20064;-78
2022/06/10 01:49:56;;;;;;;1.65;0.50;;;;;;;21.34;51.64;100833.75;4989643;28;20057;-79
2022/06/10 01:52:38;;;;;;;1.27;0.60;;;;;;;21.45;51.06;100843.16;5001914;28;20058;-79
2022/06/10 01:55:32;;;;;;;1.73;0.60;;;;;;;21.44;50.57;100841.53;5005128;28;20054;-78
2022/06/10 01:58:09;;;;;;;1.00;0.70;;;;;;;21.41;50.71;100836.50;5005349;28;20137;-77
2022/06/10 02:00:41;;;;;;;1.25;0.50;;;;;;;21.53;50.48;100848.38;4989006;28;20057;-78
2022/06/10 02:03:15;;;;;;;2.28;0.93;;;;;;;21.49;50.56;100850.66;4990694;28;20058;-77
2022/06/10 02:05:53;;;;;;;3.55;0.68;;;;;;;21.52;50.88;100850.25;5005186;28;20097;-78
2022/06/10 02:08:27;;;;;;;2.25;0.60;;;;;;;21.54;50.87;100850.91;5003227;28;20447;-80
2022/06/10 02:11:11;;;;;;;0.98;0.60;;;;;;;21.64;49.62;100857.78;5009197;28;20132;-77
2022/06/10 02:13:50;;;;;;;1.60;0.50;;;;;;;21.60;49.45;100867.31;5009452;28;20068;-77
2022/06/10 02:16:21;;;;;;;1.23;0.60;;;;;;;21.62;50.10;100862.56;5008771;28;20046;-78
2022/06/10 02:19:02;;;;;;;5.00;0.97;;;;;;;21.45;49.70;100846.69;5008754;28;20124;-76
2022/06/10 02:21:51;;;;;;;2.72;0.80;;;;;;;21.49;49.85;100845.28;5008477;28;20371;-77
2022/06/10 02:24:39;;;;;;;7.18;0.70;;;;;;;21.30;49.73;100795.50;5008158;28;20046;-78
2022/06/10 02:27:23;;;;;;;0.93;0.60;;;;;;;21.65;49.00;100860.28;5008038;28;20060;-79
2022/06/10 02:30:08;;;;;;;4.60;0.75;;;;;;;21.61;49.42;100863.59;5010060;28;20053;-76
2022/06/10 02:32:36;;;;;;;4.03;0.98;;;;;;;21.55;49.02;100855.28;5009622;28;20325;-78
2022/06/10 02:35:06;;;;;;;1.05;0.50;;;;;;;21.68;48.85;100868.00;5024438;28;20144;-78
2022/06/10 02:37:42;;;;;;;2.55;0.80;;;;;;;21.35;48.92;100811.13;5007771;28;20326;-77
2022/06/10 02:40:30;;;;;;;0.82;0.65;;;;;;;21.69;48.53;100866.13;5007850;28;20104;-78
2022/06/10 02:43:22;;;;;;;5.07;0.98;;;;;;;21.57;48.18;100846.94;5008189;28;20475;-78
2022/06/10 02:46:02;;;;;;;5.55;0.82;;;;;;;21.61;48.57;100869.84;5008363;28;20064;-78
2022/06/10 02:49:03;;;;;;;1.27;0.80;;;;;;;21.28;48.65;100824.59;5007806;28;20054;-78
2022/06/10 02:51:31;;;;;;;1.95;0.73;;;;;;;21.55;49.30;100868.78;5007834;28;20054;-78
2022/06/10 02:54:00;;;;;;;1.70;0.80;;;;;;;21.61;48.96;100879.81;5007444;28;20116;-79
2022/06/10 02:56:28;;;;;;;2.17;0.70;;;;;;;21.35;49.16;100836.25;5024075;28;20112;-78
2022/06/10 03:02:04;;;;;;;2.72;0.60;;;;;;;21.29;48.22;100814.63;5008209;28;20065;-78
2022/06/10 03:05:01;;;;;;;0.77;0.70;;;;;;;21.62;48.49;100879.59;5007209;28;20057;-79
2022/06/10 03:07:40;;;;;;;3.13;0.90;;;;;;;21.61;48.43;100880.63;5007119;28;20467;-78
2022/06/10 03:10:20;;;;;;;1.60;0.70;;;;;;;21.70;47.99;100898.34;5004241;28;20042;-78
2022/06/10 03:13:15;;;;;;;4.00;0.90;;;;;;;21.72;48.20;100895.41;5010489;28;20397;-80
2022/06/10 03:16:31;;;;;;;2.35;0.65;;;;;;;21.73;48.50;100899.81;5008070;28;20050;-77
2022/06/10 03:19:31;;;;;;;3.95;0.70;;;;;;;21.82;47.69;100909.41;4966769;28;20206;-77
2022/06/10 03:22:24;;;;;;;0.93;0.75;;;;;;;21.79;47.37;100909.78;5007181;28;20307;-78
2022/06/10 03:25:09;;;;;;;0.60;0.60;;;;;;;21.75;47.97;100922.06;5007129;28;20093;-76
2022/06/10 03:28:04;;;;;;;0.80;0.57;;;;;;;21.67;47.77;100920.34;5007745;28;20219;-77
2022/06/10 03:30:35;;;;;;;1.02;0.63;;;;;;;21.54;48.11;100898.69;5007973;28;20050;-78
2022/06/10 03:33:50;;;;;;;1.38;0.80;;;;;;;21.69;47.98;100926.38;5007503;28;20438;-78
2022/06/10 03:36:23;;;;;;;1.10;0.85;;;;;;;21.63;47.96;100926.38;4994555;28;20054;-78
2022/06/10 03:38:52;;;;;;;2.85;0.65;;;;;;;21.46;47.66;100910.50;5023599;28;20054;-77
2022/06/10 03:41:24;;;;;;;3.70;0.90;;;;;;;21.15;48.13;100848.00;5008021;28;20460;-80
2022/06/10 03:43:54;;;;;;;5.55;0.90;;;;;;;21.72;47.48;100934.09;5022947;28;20400;-78
2022/06/10 03:46:25;;;;;;;0.80;0.60;;;;;;;21.68;48.27;100935.53;5008157;28;20050;-78
2022/06/10 03:48:54;;;;;;;5.88;1.02;;;;;;;21.46;47.52;100899.69;5006442;28;20100;-78
2022/06/10 03:51:22;;;;;;;5.72;0.70;;;;;;;21.69;47.70;100941.75;5019336;28;20669;-78
2022/06/10 03:53:49;;;;;;;1.48;0.68;;;;;;;21.67;47.53;100941.13;4986038;28;20125;-78
2022/06/10 03:56:23;;;;;;;1.95;0.82;;;;;;;21.45;47.72;100921.50;4985668;28;20108;-76
2022/06/10 03:58:50;;;;;;;0.85;0.73;;;;;;;21.61;47.59;100944.66;4986081;28;20078;-78
2022/06/10 04:01:18;;;;;;;2.80;1.02;;;;;;;21.54;48.15;100950.84;4985317;28;20493;-77
2022/06/10 04:03:45;;;;;;;0.77;0.68;;;;;;;21.32;47.93;100920.38;4987458;28;20117;-79
2022/06/10 04:06:17;;;;;;;3.70;1.15;;;;;;;21.39;48.02;100919.56;5001659;28;20460;-78
2022/06/10 04:09:04;;;;;;;2.67;0.93;;;;;;;21.50;47.79;100948.72;5000048;28;20064;-78
2022/06/10 04:11:32;;;;;;;3.67;1.13;;;;;;;21.50;47.36;100954.13;5005261;28;20141;-78
2022/06/10 04:13:59;;;;;;;1.90;1.08;;;;;;;21.44;47.09;100942.28;5006776;28;20046;-78
2022/06/10 04:16:28;;;;;;;1.60;0.95;;;;;;;21.57;47.72;100967.69;5006144;28;20287;-79
2022/06/10 04:18:56;;;;;;;2.13;1.08;;;;;;;21.58;47.57;100967.50;5012139;28;20140;-78
2022/06/10 04:21:22;;;;;;;3.25;0.93;;;;;;;21.44;47.76;100955.78;4987615;28;20069;-78
2022/06/10 04:23:49;;;;;;;2.38;0.90;;;;;;;21.51;47.52;100970.16;4990976;28;20050;-77
2022/06/10 04:26:16;;;;;;;2.92;0.80;;;;;;;21.63;47.25;100975.00;5013619;28;20046;-77
2022/06/10 04:28:43;;;;;;;1.98;0.93;;;;;;;21.30;47.56;100943.19;5012585;28;20050;-79
2022/06/10 04:31:09;;;;;;;1.35;1.25;;;;;;;21.49;47.53;100969.50;5002287;28;20050;-78
2022/06/10 04:33:37;;;;;;;4.75;0.90;;;;;;;21.59;47.62;100979.97;5003308;28;20053;-79
2022/06/10 04:36:19;;;;;;;3.13;1.20;;;;;;;21.34;47.05;100925.56;4988418;28;20464;-77
2022/06/10 04:38:46;;;;;;;2.42;0.75;;;;;;;21.71;46.63;100977.53;4986828;28;20636;-78
2022/06/10 04:41:14;;;;;;;1.90;0.90;;;;;;;21.63;47.56;100991.22;4985798;28;20129;-79
2022/06/10 04:43:41;;;;;;;4.43;0.80;;;;;;;21.71;46.92;100983.75;4985263;28;20046;-77
2022/06/10 04:46:13;;;;;;;1.38;0.82;;;;;;;21.81;46.63;100987.97;4985342;28;20077;-77
2022/06/10 04:48:40;;;;;;;1.13;0.80;;;;;;;21.74;46.89;100993.31;4986779;28;20678;-77
2022/06/10 04:51:06;;;;;;;2.58;1.63;;;;;;;21.72;46.67;100990.84;4986728;28;20055;-78
2022/06/10 04:53:33;;;;;;;2.63;0.95;;;;;;;21.67;47.03;100974.38;4985902;28;20050;-77
2022/06/10 04:56:01;;;;;;;0.77;0.63;;;;;;;21.74;46.07;100977.13;4987116;28;20301;-77
2022/06/10 04:58:27;;;;;;;3.10;1.08;;;;;;;21.74;46.78;100979.81;4987504;28;20120;-77
2022/06/10 05:00:54;;;;;;;1.00;0.85;;;;;;;21.45;46.95;100941.22;4986276;28;20043;-79
2022/06/10 05:03:21;;;;;;;4.10;1.10;;;;;;;21.72;46.42;100996.25;4986128;28;20108;-78
2022/06/10 05:05:48;;;;;;;1.80;1.05;;;;;;;21.73;47.26;100997.06;4986370;28;20050;-77
2022/06/10 05:08:19;;;;;;;12.20;1.00;;;;;;;21.44;46.96;100963.88;4986480;28;20136;-77
2022/06/10 05:10:47;;;;;;;3.33;1.00;;;;;;;21.29;46.39;100928.03;5002846;28;20362;-78
2022/06/10 05:13:23;;;;;;;5.10;1.08;;;;;;;21.10;47.06;100906.13;5020820;28;20053;-80
2022/06/10 05:15:50;;;;;;;1.83;0.82;;;;;;;21.66;47.09;101001.59;5004407;28;20742;-78
2022/06/10 05:18:23;;;;;;;2.90;0.90;;;;;;;21.72;47.11;101019.72;5021472;28;20058;-76
2022/06/10 05:20:51;;;;;;;3.10;1.08;;;;;;;21.76;47.64;101019.13;5005882;28;20479;-78
2022/06/10 05:23:20;;;;;;;2.78;1.25;;;;;;;21.76;47.32;101037.19;5021999;28;20061;-78
2022/06/10 05:25:49;;;;;;;3.42;1.13;;;;;;;21.78;46.70;101037.84;5005505;28;20104;-78
2022/06/10 05:28:17;;;;;;;1.88;1.40;;;;;;;21.06;47.67;100912.94;5009403;28;20049;-78
2022/06/10 05:30:44;;;;;;;2.33;1.10;;;;;;;21.81;46.69;101045.53;5025461;28;20050;-78
2022/06/10 05:33:12;;;;;;;0.95;0.82;;;;;;;20.42;46.34;100824.06;5009143;28;20476;-78
2022/06/10 05:35:41;;;;;;;1.77;1.05;;;;;;;21.60;47.17;101042.91;5010676;28;20119;-78
2022/06/10 05:38:09;;;;;;;2.28;1.08;;;;;;;21.50;46.67;101027.88;5009691;28;20137;-78
2022/06/10 05:40:36;;;;;;;1.15;0.98;;;;;;;21.67;46.88;101051.91;5009160;28;20510;-78
2022/06/10 05:43:04;;;;;;;7.03;1.50;;;;;;;21.54;47.47;101034.56;5010285;28;20041;-77
2022/06/10 05:45:40;;;;;;;3.17;1.45;;;;;;;21.74;47.52;101063.59;5024685;28;20046;-78
2022/06/10 05:48:08;;;;;;;3.83;1.13;;;;;;;21.67;46.85;101014.91;5025594;28;20046;-79
2022/06/10 05:50:39;;;;;;;1.65;1.30;;;;;;;21.50;46.87;101008.97;5009983;28;20058;-77
2022/06/10 05:53:10;;;;;;;8.52;1.30;;;;;;;21.94;46.58;101069.94;4985791;28;20043;-79
2022/06/10 05:55:38;;;;;;;2.47;1.20;;;;;;;21.82;46.23;101049.94;4990470;28;20078;-79
2022/06/10 05:58:07;;;;;;;2.63;1.10;;;;;;;21.88;46.64;101065.31;4992585;28;20092;-79
2022/06/10 06:00:35;;;;;;;2.58;1.20;;;;;;;21.98;46.25;101079.31;5007668;28;20058;-78
2022/06/10 06:03:02;;;;;;;3.30;1.38;;;;;;;21.93;46.45;101084.47;4988977;28;20181;-78
2022/06/10 06:05:33;;;;;;;1.50;1.38;;;;;;;21.86;46.85;101069.28;5005144;28;20105;-79
2022/06/10 06:08:00;;;;;;;3.53;1.23;;;;;;;21.84;46.47;101058.66;5005949;28;20046;-77
2022/06/10 06:10:28;;;;;;;1.95;1.02;;;;;;;20.62;45.63;100849.34;5005756;28;20116;-78
2022/06/10 06:12:57;;;;;;;2.28;1.25;;;;;;;22.10;46.00;101105.78;5008901;28;20479;-78
2022/06/10 06:15:24;;;;;;;3.05;1.10;;;;;;;21.74;46.13;101058.19;5010018;28;20050;-76
2022/06/10 06:17:52;;;;;;;1.80;1.23;;;;;;;21.60;46.30;101045.63;5009573;28;20061;-78
2022/06/10 06:20:22;;;;;;;5.72;1.67;;;;;;;21.45;45.99;101024.13;5008738;28;20395;-78
2022/06/10 06:22:49;;;;;;;1.10;1.00;;;;;;;21.91;46.06;101108.16;5008699;28;20061;-79
2022/06/10 06:25:18;;;;;;;3.13;1.15;;;;;;;21.95;45.81;101097.81;5025017;28;20057;-76
2022/06/10 06:27:48;;;;;;;3.20;1.20;;;;;;;22.04;45.71;101122.78;5024706;28;20054;-78
2022/06/10 06:30:38;;;;;;;4.35;1.52;;;;;;;21.98;45.29;101103.63;5024372;28;20104;-78
2022/06/10 06:33:08;;;;;;;4.32;1.30;;;;;;;22.01;45.68;101109.69;5024659;28;20054;-78
2022/06/10 06:35:39;;;;;;;3.45;1.15;;;;;;;21.63;45.90;101061.44;5009335;28;20532;-77
2022/06/10 06:38:08;;;;;;;4.60;1.35;;;;;;;22.04;46.21;101120.09;5023714;28;20046;-78
2022/06/10 06:40:34;;;;;;;2.38;1.10;;;;;;;21.95;45.02;101093.22;5007026;28;20566;-78
2022/06/10 06:43:02;;;;;;;3.50;1.40;;;;;;;22.03;45.44;101100.34;5024440;28;20057;-77
2022/06/10 06:45:30;;;;;;;2.03;1.17;;;;;;;21.91;45.10;101091.13;5024012;28;20427;-78
2022/06/10 06:48:04;;;;;;;;;;;;;;;22.15;45.67;101142.00;5009407;28;20619;-78
2022/06/10 06:50:32;;;;;;;2.92;1.27;;;;;;;21.98;45.95;101109.03;5011501;28;19921;-79
2022/06/10 06:52:59;;;;;;;2.35;1.02;;;;;;;21.94;45.00;101090.72;5021177;28;20046;-78
2022/06/10 06:55:34;;;;;;;1.70;1.40;;;;;;;22.16;45.65;101151.78;5006469;28;20108;-77
2022/06/10 06:58:02;;;;;;;7.38;1.48;;;;;;;21.13;45.69;100981.28;4987838;28;20058;-77
2022/06/10 07:00:29;;;;;;;11.57;1.67;;;;;;;22.08;44.93;101134.88;4987806;28;20062;-77
2022/06/10 07:02:56;;;;;;;5.00;1.27;;;;;;;22.08;45.41;101134.88;4988128;28;20050;-79
2022/06/10 07:05:23;;;;;;;6.85;1.65;;;;;;;22.06;46.19;101142.34;4987945;28;20359;-80
2022/06/10 07:07:51;;;;;;;4.63;1.50;;;;;;;22.22;45.00;101161.00;5004358;28;20113;-79
2022/06/10 07:10:22;;;;;;;2.72;1.27;;;;;;;21.97;44.99;101118.19;5003525;28;20053;-79
2022/06/10 07:12:50;;;;;;;3.83;1.30;;;;;;;22.23;45.32;101168.06;5023579;28;20111;-78
2022/06/10 07:15:18;;;;;;;2.15;1.20;;;;;;;22.12;45.21;101138.88;5022597;28;20502;-79
2022/06/10 07:17:45;;;;;;;5.10;1.67;;;;;;;22.28;44.72;101167.47;5022209;28;20054;-79
2022/06/10 07:20:20;;;;;;;1.40;1.10;;;;;;;22.33;45.11;101179.38;5005156;28;20257;-79
2022/06/10 07:22:47;;;;;;;7.60;1.20;;;;;;;22.32;45.46;101179.56;5005072;28;20056;-78
2022/06/10 07:25:14;;;;;;;2.88;1.10;;;;;;;22.12;45.32;101147.81;5004943;28;20132;-78
2022/06/10 07:27:43;;;;;;;4.80;1.23;;;;;;;22.24;46.23;101172.47;5005452;28;20137;-77
2022/06/10 07:30:13;;;;;;;2.75;1.42;;;;;;;22.46;45.06;101188.59;5005893;28;20206;-78
2022/06/10 07:32:40;;;;;;;5.95;1.30;;;;;;;22.53;44.12;101198.41;5006758;28;20046;-79
2022/06/10 07:35:08;;;;;;;1.67;1.30;;;;;;;22.56;43.59;101208.81;5022341;28;20050;-78
2022/06/10 07:37:35;;;;;;;10.65;1.58;;;;;;;22.50;44.52;101196.13;5023550;28;20068;-78
2022/06/10 07:40:03;;;;;;;1.45;1.15;;;;;;;22.39;45.21;101205.63;5006053;28;20092;-79
2022/06/10 07:42:30;;;;;;;3.60;1.42;;;;;;;22.45;45.19;101208.56;5006231;28;20050;-79
2022/06/10 07:44:56;;;;;;;2.15;1.30;;;;;;;22.31;44.97;101189.56;5006361;28;20452;-78
2022/06/10 07:47:23;;;;;;;8.85;2.05;;;;;;;22.35;45.36;101195.38;5005990;28;20143;-78
2022/06/10 07:49:50;;;;;;;6.38;1.60;;;;;;;22.45;45.68;101209.38;5005676;28;20060;-79
2022/06/10 07:52:17;;;;;;;4.90;1.67;;;;;;;22.50;46.13;101208.78;5003016;28;20121;-78
2022/06/10 07:54:44;;;;;;;3.88;1.38;;;;;;;22.40;47.11;101207.31;4986280;28;20113;-80
2022/06/10 07:57:13;;;;;;;3.00;1.75;;;;;;;22.47;45.94;101214.59;4987345;28;20062;-78
2022/06/10 07:59:42;;;;;;;17.42;2.35;;;;;;;22.35;45.66;101180.00;4985783;28;20494;-78
2022/06/10 08:02:09;;;;;;;3.80;1.20;;;;;;;22.35;44.72;101179.16;4987182;28;20050;-76
2022/06/10 08:04:36;;;;;;;3.97;1.45;;;;;;;22.34;47.24;101191.84;4986225;28;20062;-78
2022/06/10 08:07:03;;;;;;;8.15;1.45;;;;;;;22.45;47.14;101206.66;4986178;28;20078;-78
2022/06/10 08:09:37;;;;;;;6.25;1.33;;;;;;;22.48;47.72;101217.13;4994763;28;20096;-80
2022/06/10 08:12:04;;;;;;;3.72;1.60;;;;;;;22.61;48.09;101235.28;5005797;28;20054;-78
2022/06/10 08:14:31;;;;;;;7.18;1.65;;;;;;;22.63;48.34;101226.97;5021922;28;20227;-78
2022/06/10 08:16:59;;;;;;;5.85;1.85;;;;;;;22.45;48.46;101200.44;5021896;28;20053;-80
2022/06/10 08:19:26;;;;;;;7.18;1.40;;;;;;;22.73;48.17;101236.38;5005442;28;20476;-76
2022/06/10 08:24:38;;;;;;;14.65;2.10;;;;;;;22.04;49.42;101152.53;5006705;28;20068;-78
2022/06/10 08:27:05;;;;;;;3.00;1.40;;;;;;;22.65;49.11;101255.50;5005940;28;20046;-79
2022/06/10 08:29:32;;;;;;;5.22;1.50;;;;;;;22.64;49.21;101248.41;5005661;28;20049;-78
2022/06/10 08:31:59;;;;;;;5.43;1.52;;;;;;;22.64;52.34;101259.22;5005798;28;20049;-80
2022/06/10 08:34:26;;;;;;;6.28;1.77;;;;;;;22.51;53.73;101242.94;5005055;28;20416;-80
2022/06/10 08:36:52;;;;;;;4.53;1.83;;;;;;;22.59;52.92;101265.22;5005291;28;20077;-78
2022/06/10 08:39:19;;;;;;;4.43;1.52;;;;;;;22.15;50.09;101173.63;5005304;28;20064;-80
2022/06/10 08:42:13;;;;;;;3.63;1.15;;;;;;;22.74;50.39;101272.38;5021578;28;20100;-79
2022/06/10 08:45:03;;;;;;;14.40;1.73;;;;;;;22.51;51.02;101242.94;5005347;28;20123;-80
2022/06/10 08:47:46;;;;;;;4.38;1.65;;;;;;;22.76;51.41;101268.44;5005455;28;20274;-75
2022/06/10 08:51:04;;;;;;;6.03;1.80;;;;;;;22.75;51.71;101266.78;5005877;28;20050;-78
2022/06/10 08:54:10;;;;;;;3.45;1.77;;;;;;;22.77;53.61;101264.72;4953231;28;20062;-78
2022/06/10 08:56:41;;;;;;;5.53;1.55;;;;;;;22.91;50.57;101279.13;4921738;29;20055;-78
2022/06/10 08:59:31;;;;;;;2.10;1.15;;;;;;;22.92;49.08;101288.13;4980631;28;20124;-79
2022/06/10 09:02:10;;;;;;;9.30;1.73;;;;;;;22.84;53.17;101297.22;4988845;28;20509;-77
2022/06/10 09:04:52;;;;;;;9.05;1.50;;;;;;;22.24;52.63;101194.09;4994121;28;20445;-79
2022/06/10 09:07:23;;;;;;;7.22;1.55;;;;;;;22.79;50.76;101257.25;4995150;28;20060;-79
2022/06/10 09:09:50;;;;;;;6.70;1.80;;;;;;;22.92;51.40;101266.47;4999974;28;20077;-76
2022/06/10 09:12:37;;;;;;;7.82;1.75;;;;;;;22.84;52.88;101253.91;5024731;28;20523;-79
2022/06/10 09:15:04;;;;;;;5.35;1.83;;;;;;;22.47;52.92;101225.41;5008932;28;20061;-79
2022/06/10 09:17:43;;;;;;;3.85;1.58;;;;;;;22.22;56.84;101212.38;5009818;28;20050;-79
2022/06/10 09:20:23;;;;;;;4.70;1.20;;;;;;;22.73;55.18;101286.97;5008846;28;20049;-79
2022/06/10 09:23:19;;;;;;;4.93;2.28;;;;;;;22.81;54.54;101298.44;5008988;28;20424;-76
2022/06/10 09:25:48;;;;;;;5.70;1.60;;;;;;;22.71;54.60;101270.09;5023014;28;20085;-79
2022/06/10 09:28:16;;;;;;;3.28;1.48;;;;;;;22.93;53.52;101300.59;5009647;28;20515;-79
2022/06/10 09:30:58;;;;;;;3.30;1.58;;;;;;;22.87;54.75;101282.47;5009668;28;20046;-78
2022/06/10 09:33:40;;;;;;;5.47;1.45;;;;;;;23.11;53.74;101291.94;5008628;28;20149;-77
2022/06/10 09:36:27;;;;;;;7.03;1.48;;;;;;;22.91;53.22;101226.88;5007937;28;20568;-79
2022/06/10 09:39:02;;;;;;;3.33;1.42;;;;;;;23.29;53.45;101288.69;5009437;28;20053;-79
2022/06/10 09:41:43;;;;;;;4.43;1.92;;;;;;;23.34;53.29;101291.63;5008556;28;20096;-78
2022/06/10 09:44:33;;;;;;;1.60;1.10;;;;;;;23.11;52.79;101226.97;5008619;28;20049;-79
2022/06/10 09:47:07;;;;;;;4.32;1.60;;;;;;;23.22;51.66;101232.63;5008185;28;20049;-79
2022/06/10 09:50:00;;;;;;;6.18;1.70;;;;;;;23.64;51.94;101287.53;5008455;28;20045;-78
2022/06/10 09:52:42;;;;;;;5.85;1.52;;;;;;;23.70;52.15;101282.31;5004123;28;20097;-79
2022/06/10 09:55:33;;;;;;;2.78;1.02;;;;;;;23.76;51.28;101290.47;4989437;28;20488;-79
2022/06/10 09:58:23;;;;;;;6.85;1.80;;;;;;;23.81;53.57;101292.56;5005895;28;20042;-79
2022/06/10 10:01:05;;;;;;;1.98;1.20;;;;;;;23.91;51.63;101292.16;5004595;28;20060;-79
2022/06/10 10:03:51;;;;;;;1.58;1.30;;;;;;;23.88;51.35;101282.56;4987121;28;20064;-79
2022/06/10 10:06:36;;;;;;;2.45;1.52;;;;;;;23.94;51.05;101276.31;5002815;28;20870;-78
2022/06/10 10:09:05;;;;;;;5.07;1.42;;;;;;;24.01;50.95;101271.72;4989746;28;20053;-79
2022/06/10 10:11:40;;;;;;;1.80;1.30;;;;;;;24.16;50.54;101273.41;5008023;28;20054;-79
2022/06/10 10:14:36;;;;;;;1.73;0.80;;;;;;;24.01;49.06;101255.47;5007041;28;20061;-79
2022/06/10 10:17:21;;;;;;;1.45;1.35;;;;;;;24.22;47.94;101283.41;5007681;28;20057;-79
2022/06/10 10:20:26;;;;;;;1.17;0.70;;;;;;;24.26;47.21;101281.94;5007714;28;20331;-79
2022/06/10 10:22:53;;;;;;;5.40;1.08;;;;;;;24.31;47.29;101282.13;5008052;28;20422;-77
2022/06/10 10:25:23;;;;;;;1.63;1.08;;;;;;;24.37;46.90;101265.03;5007522;28;20053;-79
2022/06/10 10:27:56;;;;;;;5.60;1.02;;;;;;;24.58;44.10;101260.41;5007719;28;20054;-79
2022/06/10 10:30:37;;;;;;;0.90;0.70;;;;;;;24.78;45.52;101272.03;5023478;28;20144;-79
2022/06/10 10:33:10;;;;;;;1.65;0.73;;;;;;;24.15;42.97;101149.66;5007341;28;20563;-78
2022/06/10 10:35:53;;;;;;;3.63;1.00;;;;;;;24.95;43.78;101259.66;5007953;28;20132;-80
2022/06/10 10:38:45;;;;;;;4.97;1.20;;;;;;;25.07;44.57;101272.53;5007948;28;20046;-79
2022/06/10 10:41:23;;;;;;;2.78;1.02;;;;;;;25.15;44.86;101275.03;5007962;28;20054;-80
2022/06/10 10:43:55;;;;;;;3.20;1.05;;;;;;;25.27;42.49;101267.88;5007674;28;20042;-78
2022/06/10 10:46:56;;;;;;;1.27;1.10;;;;;;;25.40;41.06;101258.81;5006977;28;20053;-79
2022/06/10 10:49:39;;;;;;;2.55;0.50;;;;;;;25.19;41.25;101221.94;5023539;28;20046;-78
2022/06/10 10:52:26;;;;;;;1.25;1.02;;;;;;;25.49;40.62;101262.09;5022133;28;20058;-79
2022/06/10 10:55:13;;;;;;;0.82;0.57;;;;;;;25.35;40.16;101253.19;4988006;28;20058;-79
2022/06/10 10:57:44;;;;;;;4.63;1.17;;;;;;;25.28;39.44;101255.13;4989595;28;20234;-79
2022/06/10 11:00:11;;;;;;;1.75;1.08;;;;;;;25.37;40.60;101283.72;4991812;28;20065;-80
2022/06/10 11:02:40;;;;;;;5.63;1.08;;;;;;;25.31;41.90;101282.69;4991151;28;20062;-80
2022/06/10 11:05:31;;;;;;;1.52;0.90;;;;;;;25.21;42.96;101252.44;4988125;28;20124;-80
2022/06/10 11:08:23;;;;;;;2.15;0.90;;;;;;;25.02;42.16;101226.19;4987710;28;20057;-80
2022/06/10 11:11:11;;;;;;;1.17;0.95;;;;;;;25.31;43.26;101277.25;5020740;28;20128;-79
2022/06/10 11:13:49;;;;;;;2.25;0.80;;;;;;;25.23;43.60;101263.94;5006891;28;20057;-79
2022/06/10 11:16:31;;;;;;;5.72;1.30;;;;;;;25.38;42.87;101279.94;5006436;28;20441;-76
2022/06/10 11:19:17;;;;;;;3.95;0.65;;;;;;;24.95;43.85;101218.91;5006779;28;20049;-78
2022/06/10 11:21:55;;;;;;;3.33;1.05;;;;;;;24.95;42.61;101191.75;5006439;28;20135;-79
2022/06/10 11:24:26;;;;;;;2.50;0.70;;;;;;;25.44;41.97;101270.91;5007318;28;20050;-78
2022/06/10 11:26:58;;;;;;;2.33;0.80;;;;;;;25.40;42.08;101285.16;5006439;28;20062;-77
2022/06/10 11:29:27;;;;;;;1.50;0.88;;;;;;;24.92;43.18;101196.78;5007704;28;20049;-79
2022/06/10 11:32:04;;;;;;;1.27;0.70;;;;;;;25.23;41.41;101242.19;5008122;28;20076;-78
2022/06/10 11:34:38;;;;;;;2.08;1.13;;;;;;;25.14;42.35;101240.75;5023158;28;20060;-78
2022/06/10 11:37:28;;;;;;;2.03;1.02;;;;;;;25.25;42.36;101258.28;5008076;28;20046;-78
2022/06/10 11:40:05;;;;;;;2.03;1.08;;;;;;;25.24;43.73;101249.28;5022946;28;20583;-78
2022/06/10 11:42:42;;;;;;;3.50;0.88;;;;;;;25.31;40.94;101254.69;5006178;28;20054;-79
2022/06/10 11:45:19;;;;;;;2.42;1.00;;;;;;;24.80;42.07;101188.47;5005890;28;20054;-80
2022/06/10 11:47:53;;;;;;;1.08;0.98;;;;;;;25.30;44.20;101270.16;5022420;28;20550;-78
2022/06/10 11:50:31;;;;;;;3.55;0.70;;;;;;;25.42;43.02;101272.19;5022448;28;20522;-78
2022/06/10 11:53:46;;;;;;;2.25;1.05;;;;;;;25.27;42.45;101254.28;4998355;28;20061;-80
2022/06/10 12:02:12;;;;;;;2.25;1.52;;;;;;;25.20;42.89;101231.75;4988653;28;20054;-79
2022/06/10 12:04:45;;;;;;;2.80;1.02;;;;;;;25.59;41.69;101267.88;4986561;28;20046;-80
2022/06/10 12:07:20;;;;;;;3.60;1.08;;;;;;;25.12;40.45;101158.63;4986384;28;20053;-78
2022/06/10 12:09:51;;;;;;;1.15;0.77;;;;;;;25.64;43.92;101238.16;5012486;28;20096;-79
2022/06/10 12:12:29;;;;;;;3.63;0.90;;;;;;;25.62;42.49;101213.06;5022639;28;20479;-79